createdAt,value
2016-06-18T00:00:49.882Z,99.99
2016-06-18T00:01:50.496Z,99.99
2016-06-18T00:02:50.529Z,99.99
2016-06-18T00:03:50.549Z,99.99
2016-06-18T00:04:50.583Z,99.99
2016-06-18T00:06:02.712Z,99.99
2016-06-18T00:06:53.028Z,99.99
2016-06-18T00:07:50.626Z,99.99
2016-06-18T00:08:50.660Z,99.99
2016-06-18T00:09:50.789Z,99.99
2016-06-18T00:10:51.480Z,99.99
2016-06-18T00:12:02.843Z,99.99
2016-06-18T00:12:50.737Z,99.99
2016-06-18T00:13:50.740Z,99.99
2016-06-18T00:14:52.196Z,99.99
2016-06-18T00:15:50.168Z,99.99
2016-06-18T00:16:50.797Z,99.99
2016-06-18T00:17:50.191Z,99.99
2016-06-18T00:18:50.835Z,99.99
2016-06-18T00:19:50.260Z,99.99
2016-06-18T00:20:50.889Z,99.99
2016-06-18T00:21:50.284Z,99.99
2016-06-18T00:23:16.584Z,99.99
2016-06-18T00:23:50.932Z,99.99
2016-06-18T00:24:50.341Z,99.99
2016-06-18T00:25:52.391Z,99.99
2016-06-18T00:27:10.238Z,99.99
2016-06-18T00:27:52.460Z,99.99
2016-06-18T00:28:53.120Z,99.99
2016-06-18T00:29:52.498Z,99.99
2016-06-18T00:30:54.580Z,99.99
2016-06-18T00:31:53.163Z,99.99
2016-06-18T00:33:05.915Z,99.99
2016-06-18T00:33:52.591Z,99.99
2016-06-18T00:34:52.594Z,99.99
2016-06-18T00:35:52.613Z,99.99
2016-06-18T00:37:18.320Z,99.99
2016-06-18T00:37:53.401Z,99.99
2016-06-18T00:38:52.670Z,99.99
2016-06-18T00:40:06.065Z,99.99
2016-06-18T00:40:52.708Z,99.99
2016-06-18T00:41:52.744Z,99.99
2016-06-18T00:42:52.763Z,99.99
2016-06-18T00:43:52.782Z,99.99
2016-06-18T00:44:52.785Z,99.99
2016-06-18T00:45:53.444Z,99.99
2016-06-18T00:46:52.839Z,99.99
2016-06-18T00:47:53.482Z,99.99
2016-06-18T00:48:52.877Z,99.99
2016-06-18T00:50:06.255Z,99.99
2016-06-18T00:51:19.211Z,99.99
2016-06-18T00:51:52.935Z,99.99
2016-06-18T00:53:52.988Z,99.99
2016-06-18T00:54:53.632Z,99.99
2016-06-18T00:55:53.010Z,99.99
2016-06-18T00:56:53.655Z,99.99
2016-06-18T00:57:53.049Z,99.99
2016-06-18T00:58:53.693Z,99.99
2016-06-18T00:59:53.743Z,99.99
2016-06-18T01:00:53.106Z,99.99
2016-06-18T01:01:53.125Z,99.99
2016-06-18T01:02:53.191Z,99.99
2016-06-18T01:04:06.538Z,99.99
2016-06-18T01:04:53.823Z,99.99
2016-06-18T01:05:53.217Z,99.99
2016-06-18T01:06:53.845Z,99.99
2016-06-18T01:07:53.255Z,99.99
2016-06-18T01:09:06.680Z,99.99
2016-06-18T01:09:53.308Z,99.99
2016-06-18T01:10:53.937Z,99.99
2016-06-18T01:11:53.316Z,99.99
2016-06-18T01:12:53.976Z,99.99
2016-06-18T01:14:06.120Z,99.99
2016-06-18T01:14:55.436Z,99.99
2016-06-18T01:15:54.032Z,99.99
2016-06-18T01:16:54.068Z,99.99
2016-06-18T01:17:53.571Z,99.99
2016-06-18T01:18:55.512Z,99.99
2016-06-18T01:19:53.500Z,99.99
2016-06-18T01:20:53.535Z,99.99
2016-06-18T01:21:53.678Z,99.99
2016-06-18T01:22:54.978Z,99.99
2016-06-18T01:23:53.577Z,99.99
2016-06-18T01:24:54.204Z,99.99
2016-06-18T01:25:54.239Z,99.99
2016-06-18T01:26:54.259Z,99.99
2016-06-18T01:27:54.278Z,99.99
2016-06-18T01:28:54.296Z,99.99
2016-06-18T01:29:59.972Z,99.99
2016-06-18T01:30:54.347Z,99.99
2016-06-18T01:31:54.351Z,99.99
2016-06-18T01:32:54.385Z,99.99
2016-06-18T01:34:00.111Z,99.99
2016-06-18T01:34:53.799Z,99.99
2016-06-18T01:36:07.180Z,99.99
2016-06-18T01:36:54.508Z,99.99
2016-06-18T01:37:53.871Z,99.99
2016-06-18T01:38:53.875Z,99.99
2016-06-18T01:39:54.550Z,99.99
2016-06-18T01:40:53.929Z,99.99
2016-06-18T01:41:53.948Z,99.99
2016-06-18T01:42:54.561Z,99.99
2016-06-18T01:43:53.986Z,99.99
2016-06-18T01:44:54.614Z,99.99
2016-06-18T01:45:54.633Z,99.99
2016-06-18T01:46:54.684Z,99.99
2016-06-18T01:47:54.094Z,99.99
2016-06-18T01:48:54.081Z,99.99
2016-06-18T01:49:54.101Z,99.99
2016-06-18T01:50:54.745Z,99.99
2016-06-18T01:51:54.763Z,99.99
2016-06-18T01:52:54.782Z,99.99
2016-06-18T01:53:57.833Z,99.99
2016-06-18T01:55:07.564Z,99.99
2016-06-18T01:55:54.845Z,99.99
2016-06-18T01:56:54.242Z,99.99
2016-06-18T01:57:57.921Z,99.99
2016-06-18T01:58:54.287Z,99.99
2016-06-18T01:59:54.308Z,99.99
2016-06-18T02:00:54.937Z,99.99
2016-06-18T02:01:54.989Z,99.99
2016-06-18T02:02:54.994Z,99.99
2016-06-18T02:03:55.013Z,99.99
2016-06-18T02:04:55.049Z,99.99
2016-06-18T02:05:54.428Z,99.99
2016-06-18T02:06:54.447Z,99.99
2016-06-18T02:07:55.107Z,99.99
2016-06-18T02:08:55.127Z,99.99
2016-06-18T02:09:54.522Z,99.99
2016-06-18T02:11:07.888Z,99.99
2016-06-18T02:11:54.544Z,99.99
2016-06-18T02:12:55.220Z,99.99
2016-06-18T02:13:55.224Z,99.99
2016-06-18T02:14:54.618Z,99.99
2016-06-18T02:15:55.325Z,99.99
2016-06-18T02:16:55.281Z,99.99
2016-06-18T02:17:54.691Z,99.99
2016-06-18T02:18:55.304Z,99.99
2016-06-18T02:19:55.322Z,99.99
2016-06-18T02:20:56.139Z,99.99
2016-06-18T02:21:55.361Z,99.99
2016-06-18T02:22:55.396Z,99.99
2016-06-18T02:23:55.399Z,99.99
2016-06-18T02:24:55.434Z,99.99
2016-06-18T02:25:54.843Z,99.99
2016-06-18T02:26:55.472Z,99.99
2016-06-18T02:28:07.619Z,99.99
2016-06-18T02:28:55.510Z,99.99
2016-06-18T02:29:55.514Z,99.99
2016-06-18T02:30:55.689Z,99.99
2016-06-18T02:31:55.567Z,99.99
2016-06-18T02:33:07.699Z,99.99
2016-06-18T02:34:01.874Z,99.99
2016-06-18T02:34:55.624Z,99.99
2016-06-18T02:35:55.644Z,99.99
2016-06-18T02:36:55.023Z,99.99
2016-06-18T02:37:55.056Z,99.99
2016-06-18T02:38:55.701Z,99.99
2016-06-18T02:39:55.705Z,99.99
2016-06-18T02:40:55.115Z,99.99
2016-06-18T02:41:55.758Z,99.99
2016-06-18T02:42:55.777Z,99.99
2016-06-18T02:43:57.218Z,99.99
2016-06-18T02:44:55.816Z,99.99
2016-06-18T02:45:55.866Z,99.99
2016-06-18T02:46:55.853Z,99.99
2016-06-18T02:47:55.935Z,99.99
2016-06-18T02:48:55.955Z,99.99
2016-06-18T02:49:55.287Z,99.99
2016-06-18T02:50:55.929Z,99.99
2016-06-18T02:51:55.949Z,99.99
2016-06-18T02:52:57.390Z,99.99
2016-06-18T02:53:56.003Z,99.99
2016-06-18T02:54:56.006Z,99.99
2016-06-18T02:56:21.716Z,99.99
2016-06-18T02:57:08.173Z,99.99
2016-06-18T02:57:55.439Z,99.99
2016-06-18T02:58:56.130Z,99.99
2016-06-18T02:59:56.118Z,99.99
2016-06-18T03:00:56.121Z,99.99
2016-06-18T03:01:56.171Z,99.99
2016-06-18T03:02:56.159Z,99.99
2016-06-18T03:04:08.947Z,99.99
2016-06-18T03:04:55.572Z,99.99
2016-06-18T03:05:56.216Z,99.99
2016-06-18T03:06:55.626Z,99.99
2016-06-18T03:07:55.646Z,99.99
2016-06-18T03:08:55.664Z,99.99
2016-06-18T03:09:56.308Z,99.99
2016-06-18T03:11:14.909Z,99.99
2016-06-18T03:11:56.346Z,99.99
2016-06-18T03:13:22.134Z,99.99
2016-06-18T03:14:08.512Z,99.99
2016-06-18T03:14:56.403Z,99.99
2016-06-18T03:16:15.005Z,99.99
2016-06-18T03:16:55.833Z,99.99
2016-06-18T03:17:56.461Z,99.99
2016-06-18T03:18:56.496Z,99.99
2016-06-18T03:19:56.499Z,99.99
2016-06-18T03:20:56.533Z,99.99
2016-06-18T03:21:56.522Z,99.99
2016-06-18T03:22:55.932Z,99.99
2016-06-18T03:23:56.590Z,99.99
2016-06-18T03:24:56.594Z,99.99
2016-06-18T03:25:56.614Z,99.99
2016-06-18T03:26:56.023Z,99.99
2016-06-18T03:27:56.042Z,99.99
2016-06-18T03:28:56.702Z,99.99
2016-06-18T03:30:02.975Z,99.99
2016-06-18T03:30:56.100Z,99.99
2016-06-18T03:31:56.807Z,99.99
2016-06-18T03:32:56.152Z,99.99
2016-06-18T03:33:56.844Z,99.99
2016-06-18T03:34:56.176Z,99.99
2016-06-18T03:35:56.196Z,99.99
2016-06-18T03:37:03.124Z,99.99
2016-06-18T03:37:56.233Z,99.99
2016-06-18T03:38:56.878Z,99.99
2016-06-18T03:39:56.287Z,99.99
2016-06-18T03:41:21.981Z,99.99
2016-06-18T03:41:56.934Z,99.99
2016-06-18T03:42:57.000Z,99.99
2016-06-18T03:43:56.973Z,99.99
2016-06-18T03:44:57.008Z,99.99
2016-06-18T03:45:57.870Z,99.99
2016-06-18T03:46:56.420Z,99.99
2016-06-18T03:47:56.440Z,99.99
2016-06-18T03:48:57.146Z,99.99
2016-06-18T03:49:57.119Z,99.99
2016-06-18T03:50:57.122Z,99.99
2016-06-18T03:51:57.141Z,99.99
2016-06-18T03:52:56.535Z,99.99
2016-06-18T03:53:57.976Z,99.99
2016-06-18T03:54:57.214Z,99.99
2016-06-18T03:55:56.623Z,99.99
2016-06-18T03:57:09.364Z,99.99
2016-06-18T03:57:57.271Z,99.99
2016-06-18T03:58:57.306Z,99.99
2016-06-18T03:59:57.325Z,99.99
2016-06-18T04:00:56.704Z,99.99
2016-06-18T04:01:57.347Z,99.99
2016-06-18T04:02:57.382Z,99.99
2016-06-18T04:03:56.776Z,99.99
2016-06-18T04:04:57.421Z,99.99
2016-06-18T04:05:57.424Z,99.99
2016-06-18T04:06:57.442Z,99.99
2016-06-18T04:07:56.884Z,99.99
2016-06-18T04:08:56.872Z,99.99
2016-06-18T04:10:10.302Z,99.99
2016-06-18T04:10:57.552Z,99.99
2016-06-18T04:11:56.968Z,99.99
2016-06-18T04:12:57.603Z,99.99
2016-06-18T04:13:57.004Z,99.99
2016-06-18T04:14:57.715Z,99.99
2016-06-18T04:15:57.068Z,99.99
2016-06-18T04:17:10.439Z,99.99
2016-06-18T04:17:57.111Z,99.99
2016-06-18T04:18:57.757Z,99.99
2016-06-18T04:19:57.153Z,99.99
2016-06-18T04:20:57.174Z,99.99
2016-06-18T04:21:57.820Z,99.99
2016-06-18T04:22:57.854Z,99.99
2016-06-18T04:23:57.860Z,99.99
2016-06-18T04:24:57.285Z,99.99
2016-06-18T04:25:57.961Z,99.99
2016-06-18T04:26:57.918Z,99.99
2016-06-18T04:27:57.938Z,99.99
2016-06-18T04:28:57.973Z,99.99
2016-06-18T04:29:59.414Z,99.99
2016-06-18T04:30:58.012Z,99.99
2016-06-18T04:31:57.405Z,99.99
2016-06-18T04:32:59.471Z,99.99
2016-06-18T04:33:59.491Z,99.99
2016-06-18T04:35:00.103Z,99.99
2016-06-18T04:36:00.138Z,99.99
2016-06-18T04:37:00.205Z,99.99
2016-06-18T04:38:00.175Z,99.99
2016-06-18T04:38:59.586Z,99.99
2016-06-18T04:40:12.952Z,99.99
2016-06-18T04:41:00.311Z,99.99
2016-06-18T04:42:00.268Z,99.99
2016-06-18T04:43:00.318Z,99.99
2016-06-18T04:44:13.075Z,99.99
2016-06-18T04:45:13.064Z,99.99
2016-06-18T04:46:00.345Z,99.99
2016-06-18T04:46:59.754Z,99.99
2016-06-18T04:48:00.398Z,99.99
2016-06-18T04:49:14.749Z,99.99
2016-06-18T04:50:14.081Z,99.99
2016-06-18T04:51:14.099Z,99.99
2016-06-18T04:52:14.197Z,99.99
2016-06-18T04:53:14.153Z,99.99
2016-06-18T04:54:14.891Z,99.99
2016-06-18T04:55:14.801Z,99.99
2016-06-18T04:56:16.241Z,99.99
2016-06-18T04:57:14.855Z,99.99
2016-06-18T04:58:33.514Z,99.99
2016-06-18T04:59:16.456Z,99.99
2016-06-18T05:01:24.462Z,99.99
2016-06-18T05:02:23.841Z,99.99
2016-06-18T05:03:23.876Z,99.99
2016-06-18T05:04:24.519Z,99.99
2016-06-18T05:05:23.930Z,99.99
2016-06-18T05:06:25.370Z,99.99
2016-06-18T05:07:43.170Z,99.99
2016-06-18T05:08:24.018Z,99.99
2016-06-18T05:09:24.147Z,99.99
2016-06-18T05:10:24.039Z,99.99
2016-06-18T05:11:24.122Z,99.99
2016-06-18T05:12:24.079Z,99.99
2016-06-18T05:13:24.301Z,99.99
2016-06-18T05:14:49.803Z,99.99
2016-06-18T05:15:24.167Z,99.99
2016-06-18T05:16:24.170Z,99.99
2016-06-18T05:17:24.830Z,99.99
2016-06-18T05:18:24.850Z,97.91
2016-06-18T05:19:24.758Z,96.32
2016-06-18T05:20:24.903Z,91.22
2016-06-18T05:21:24.297Z,85.11
2016-06-18T05:22:24.972Z,76.86
2016-06-18T05:23:24.945Z,71.77
2016-06-18T05:24:43.699Z,68.33
2016-06-18T05:25:24.998Z,67.69
2016-06-18T05:26:25.127Z,65.56
2016-06-18T05:27:37.787Z,65.66
2016-06-18T05:28:25.071Z,67.07
2016-06-18T05:30:25.141Z,69.29
2016-06-18T05:31:24.519Z,69.64
2016-06-18T05:32:24.554Z,70.76
2016-06-18T05:33:25.214Z,71.34
2016-06-18T05:34:25.216Z,72.37
2016-06-18T05:35:24.673Z,74.26
2016-06-18T05:36:25.287Z,76.34
2016-06-18T05:37:25.352Z,77.94
2016-06-18T05:38:37.449Z,79.73
2016-06-18T05:39:24.781Z,81.71
2016-06-18T05:40:25.410Z,81.9
2016-06-18T05:41:25.413Z,82.92
2016-06-18T05:42:24.808Z,85.13
2016-06-18T05:43:25.451Z,87.19
2016-06-18T05:44:25.486Z,88.25
2016-06-18T05:45:24.880Z,88.83
2016-06-18T05:46:25.524Z,89.89
2016-06-18T05:47:25.559Z,88.73
2016-06-18T05:48:25.593Z,88.25
2016-06-18T05:49:24.988Z,87.29
2016-06-18T05:50:25.022Z,86.62
2016-06-18T05:51:25.651Z,87.19
2016-06-18T05:52:25.701Z,87.29
2016-06-18T05:53:25.720Z,87.49
2016-06-18T05:54:25.099Z,87.01
2016-06-18T05:55:25.164Z,86.28
2016-06-18T05:56:25.809Z,86.14
2016-06-18T05:57:25.188Z,85.71
2016-06-18T05:58:25.831Z,85.89
2016-06-18T05:59:25.850Z,83.78
2016-06-18T06:00:25.885Z,82.67
2016-06-18T06:01:25.920Z,82.29
2016-06-18T06:02:25.299Z,82.29
2016-06-18T06:03:26.036Z,80.17
2016-06-18T06:04:25.367Z,80.46
2016-06-18T06:05:25.402Z,80.5
2016-06-18T06:06:25.422Z,81.99
2016-06-18T06:07:26.081Z,82.86
2016-06-18T06:08:26.069Z,82.86
2016-06-18T06:09:25.479Z,82.48
2016-06-18T06:10:26.122Z,82.57
2016-06-18T06:11:26.158Z,82.86
2016-06-18T06:12:25.536Z,82.86
2016-06-18T06:13:26.226Z,82.57
2016-06-18T06:14:25.605Z,81.9
2016-06-18T06:15:26.264Z,81.9
2016-06-18T06:16:26.300Z,81.13
2016-06-18T06:17:26.319Z,80.07
2016-06-18T06:18:26.369Z,80.46
2016-06-18T06:19:25.732Z,79.88
2016-06-18T06:20:25.751Z,79.69
2016-06-18T06:21:26.395Z,78.15
2016-06-18T06:22:26.413Z,77.23
2016-06-18T06:23:25.839Z,76.42
2016-06-18T06:24:26.483Z,75.21
2016-06-18T06:25:26.535Z,73.99
2016-06-18T06:26:25.913Z,69.76
2016-06-18T06:27:26.542Z,69.99
2016-06-18T06:28:26.578Z,69.41
2016-06-18T06:29:25.987Z,68.44
2016-06-18T06:30:26.102Z,68.35
2016-06-18T06:31:26.653Z,66.62
2016-06-18T06:32:26.672Z,66.75
2016-06-18T06:33:26.098Z,66.59
2016-06-18T06:34:26.742Z,66.3
2016-06-18T06:35:26.136Z,62.99
2016-06-18T06:36:26.797Z,60.99
2016-06-18T06:37:51.878Z,57.67
2016-06-18T06:38:59.053Z,57.21
2016-06-18T06:39:40.510Z,56.54
2016-06-18T06:40:39.920Z,55.38
2016-06-18T06:41:40.565Z,56.03
2016-06-18T06:42:39.988Z,56.51
2016-06-18T06:43:40.633Z,56.61
2016-06-18T06:44:40.011Z,56.2
2016-06-18T06:45:40.046Z,55.93
2016-06-18T06:46:40.066Z,55.65
2016-06-18T06:47:59.303Z,55.81
2016-06-18T06:48:40.744Z,57.52
2016-06-18T06:49:40.967Z,59.42
2016-06-18T06:50:40.236Z,60.74
2016-06-18T06:51:41.020Z,61.96
2016-06-18T06:52:53.024Z,64.05
2016-06-18T06:53:40.995Z,65.08
2016-06-18T06:54:40.984Z,66.62
2016-06-18T06:55:40.316Z,67.45
